home support login
SAVED Flights LIVE Flights

26-03-2011- flying solo at Mascouche, QC, Runway 29 by JPFly

 
Description

261400Z 26006KT 45SM FEW085 FEW250 M06/M13 A2996 RMK
AC1CI1 SLP151=

Maximum Speed: 221 km/h
Maximum Altitude: 335 m
Total Time: 1 hr, 23 min, 30 sec
Total Distance: 80.3 km
Flight Date:
 
map controls

arrow Rotation, and 3D manoeuvring.
Alternatively, hold 'shift' when you click + drag the map

arrow Move forward/back/left/right.
Alternatively, click + drag the map

arrow Zoom in / out.
Alternatively, scroll your mouse wheel

Colour Flight path based on
Time
Speed
Altitude
START
END
Google Map Legend
Flight Detail
Normal (max. 1000 points)
High (max. 4000 points)
Comments
 
You need to login to post.
No account? Register for free now.


 
You need to login to post.
No account? Register for free now.